Time;durP1;ratioP1;P1;durP2;ratioP2;P2;SDS_P1;SDS_P2;PMS_P1;PMS_P2;Temp;Humidity;BMP_temperature;BMP_pressure;BME280_temperature;BME280_humidity;BME280_pressure;Samples;Min_cycle;Max_cycle;Signal;HPM_P1;HPM_P2
2022/11/20 00:00:30;;;;;;;;;;;26.10;55.70;;;;;;4958472;28;19949;-70
2022/11/20 00:02:57;;;;;;;;;;;26.00;55.90;;;;;;4940815;28;19914;-72
2022/11/20 00:05:24;;;;;;;;;;;26.00;55.00;;;;;;4958730;28;19933;-73
2022/11/20 00:07:51;;;;;;;;;;;25.90;54.90;;;;;;4958689;28;19944;-71
2022/11/20 00:10:17;;;;;;;;;;;25.80;55.10;;;;;;4941195;28;19914;-71
2022/11/20 00:12:44;;;;;;;;;;;25.70;55.60;;;;;;4955436;28;19953;-72
2022/11/20 00:15:10;;;;;;;;;;;25.80;56.40;;;;;;4940155;29;20378;-70
2022/11/20 00:17:37;;;;;;;;;;;25.90;55.70;;;;;;4940912;28;19919;-68
2022/11/20 00:20:04;;;;;;;;;;;25.90;56.00;;;;;;4955322;28;19918;-67
2022/11/20 00:22:31;;;;;;;;;;;26.10;56.60;;;;;;4950191;28;19914;-68
2022/11/20 00:24:57;;;;;;;;;;;26.10;55.50;;;;;;4954618;28;19914;-69
2022/11/20 00:27:24;;;;;;;;;;;26.20;55.30;;;;;;4952998;28;20623;-69
2022/11/20 00:29:50;;;;;;;;;;;26.00;55.80;;;;;;4951804;28;19914;-71
2022/11/20 00:32:17;;;;;;;;;;;26.00;56.20;;;;;;4957556;28;20320;-70
2022/11/20 00:34:44;;;;;;;;;;;26.10;56.80;;;;;;4957961;28;19918;-68
2022/11/20 00:37:10;;;;;;;;;;;26.40;55.90;;;;;;4950685;28;19918;-70
2022/11/20 00:39:37;;;;;;;;;;;26.30;54.40;;;;;;4956452;28;19925;-69
2022/11/20 00:42:04;;;;;;;;;;;26.20;54.30;;;;;;4958141;28;19922;-68
2022/11/20 00:44:30;;;;;;;;;;;26.10;53.90;;;;;;4958519;28;19918;-68
2022/11/20 00:46:57;;;;;;;;;;;26.20;55.00;;;;;;4956234;28;20593;-67
2022/11/20 00:49:24;;;;;;;;;;;26.10;53.90;;;;;;4955018;28;20563;-67
2022/11/20 00:51:51;;;;;;;;;;;26.20;54.50;;;;;;4958088;28;19932;-67
2022/11/20 00:54:17;;;;;;;;;;;26.40;55.00;;;;;;4940907;28;20033;-69
2022/11/20 00:56:44;;;;;;;;;;;26.50;53.60;;;;;;4958685;28;20006;-68
2022/11/20 00:59:10;;;;;;;;;;;26.60;53.60;;;;;;4957404;28;19952;-70
2022/11/20 01:01:37;;;;;;;;;;;26.60;54.60;;;;;;4958044;28;20750;-70
2022/11/20 01:04:04;;;;;;;;;;;26.50;54.20;;;;;;4958280;28;19910;-70
2022/11/20 01:06:35;;;;;;;;;;;26.50;54.40;;;;;;4958141;28;19918;-68
2022/11/20 01:09:12;;;;;;;;;;;26.50;54.30;;;;;;4942026;28;19926;-70
2022/11/20 01:11:41;;;;;;;;;;;26.60;54.40;;;;;;4953630;28;20268;-71
2022/11/20 01:14:11;;;;;;;;;;;26.50;53.50;;;;;;4957560;28;19967;-70
2022/11/20 01:16:39;;;;;;;;;;;26.70;53.60;;;;;;4957733;28;20268;-69
2022/11/20 01:19:07;;;;;;;;;;;26.60;53.50;;;;;;4954489;28;19922;-70
2022/11/20 01:21:38;;;;;;;;;;;26.70;53.60;;;;;;4959087;28;19911;-70
2022/11/20 01:24:07;;;;;;;;;;;26.70;54.70;;;;;;4958219;28;19910;-68
2022/11/20 01:26:36;;;;;;;;;;;26.70;53.60;;;;;;4956819;28;20594;-69
2022/11/20 01:29:03;;;;;;;;;;;26.70;53.20;;;;;;4953415;28;19935;-70
2022/11/20 01:31:32;;;;;;;;;;;26.80;53.50;;;;;;4974653;28;19970;-67
2022/11/20 01:34:00;;;;;;;;;;;26.80;53.20;;;;;;4957086;28;20414;-67
2022/11/20 01:36:28;;;;;;;;;;;27.10;53.90;;;;;;4958336;28;19910;-68
2022/11/20 01:38:55;;;;;;;;;;;27.40;53.90;;;;;;4940814;28;19918;-69
2022/11/20 01:44:08;;;;;;;;;;;27.40;53.60;;;;;;4940493;28;19941;-67
2022/11/20 01:46:37;;;;;;;;;;;27.40;53.30;;;;;;4953857;28;19925;-69
2022/11/20 01:49:03;;;;;;;;;;;27.50;54.00;;;;;;4960201;28;19972;-68
2022/11/20 01:51:35;;;;;;;;;;;27.50;53.00;;;;;;4965418;28;19940;-68
2022/11/20 01:54:04;;;;;;;;;;;27.50;52.60;;;;;;4958262;28;19929;-68
2022/11/20 01:56:33;;;;;;;;;;;27.70;52.30;;;;;;4975170;28;19921;-69
2022/11/20 01:59:01;;;;;;;;;;;27.80;53.10;;;;;;4945099;28;19964;-68
2022/11/20 02:01:28;;;;;;;;;;;27.90;52.50;;;;;;4938586;28;19993;-68
2022/11/20 02:03:55;;;;;;;;;;;28.00;53.00;;;;;;4953212;28;19914;-68
2022/11/20 02:06:29;;;;;;;;;;;28.10;53.20;;;;;;4960226;28;19917;-67
2022/11/20 02:08:56;;;;;;;;;;;28.20;53.60;;;;;;4976320;28;19978;-68
2022/11/20 02:11:22;;;;;;;;;;;28.30;52.80;;;;;;4959345;28;20017;-68
2022/11/20 02:13:49;;;;;;;;;;;28.30;52.00;;;;;;4956850;28;19914;-69
2022/11/20 02:16:16;;;;;;;;;;;28.40;51.30;;;;;;4958288;28;19910;-69
2022/11/20 02:18:44;;;;;;;;;;;28.50;51.70;;;;;;4956629;28;20365;-68
2022/11/20 02:21:19;;;;;;;;;;;28.70;52.00;;;;;;4940572;28;19972;-68
2022/11/20 02:23:52;;;;;;;;;;;28.90;51.40;;;;;;4936848;28;19921;-68
2022/11/20 02:26:20;;;;;;;;;;;28.80;51.20;;;;;;4949912;28;19921;-70
2022/11/20 02:28:47;;;;;;;;;;;28.70;51.90;;;;;;4955714;28;19929;-69
2022/11/20 02:31:14;;;;;;;;;;;28.90;51.90;;;;;;4965523;28;19913;-69
2022/11/20 02:33:40;;;;;;;;;;;29.30;51.60;;;;;;4974486;28;19910;-68
2022/11/20 02:36:09;;;;;;;;;;;29.40;50.60;;;;;;4956561;28;19914;-68
2022/11/20 02:38:35;;;;;;;;;;;29.10;51.60;;;;;;4937377;28;19969;-68
2022/11/20 02:41:02;;;;;;;;;;;28.70;51.30;;;;;;4937898;28;19910;-68
2022/11/20 02:43:28;;;;;;;;;;;28.50;51.70;;;;;;4937845;28;19910;-68
2022/11/20 02:45:55;;;;;;;;;;;28.50;51.70;;;;;;4937011;28;19910;-68
2022/11/20 02:48:22;;;;;;;;;;;28.90;51.60;;;;;;4956968;28;19923;-69
2022/11/20 02:50:48;;;;;;;;;;;29.50;51.20;;;;;;4956379;28;19917;-68
2022/11/20 02:53:15;;;;;;;;;;;30.30;51.60;;;;;;4954566;28;19922;-68
2022/11/20 02:55:41;;;;;;;;;;;31.10;50.30;;;;;;4936767;28;20020;-69
2022/11/20 02:58:08;;;;;;;;;;;31.60;49.20;;;;;;4937887;28;19914;-69
2022/11/20 03:00:35;;;;;;;;;;;31.40;49.80;;;;;;4937995;28;19915;-68
2022/11/20 03:03:02;;;;;;;;;;;31.70;50.10;;;;;;4936732;28;19921;-69
2022/11/20 03:05:28;;;;;;;;;;;31.90;49.90;;;;;;4937682;28;20061;-68
2022/11/20 03:07:55;;;;;;;;;;;33.00;49.90;;;;;;4945004;28;19974;-71
2022/11/20 03:10:21;;;;;;;;;;;33.40;48.20;;;;;;4959858;28;19918;-68
2022/11/20 03:12:52;;;;;;;;;;;33.00;48.40;;;;;;4935425;28;19910;-69
2022/11/20 03:15:19;;;;;;;;;;;33.20;47.50;;;;;;4941392;28;19917;-69
2022/11/20 03:17:45;;;;;;;;;;;33.20;48.20;;;;;;4940102;28;19932;-70
2022/11/20 03:20:12;;;;;;;;;;;33.30;47.60;;;;;;4940504;28;19988;-70
2022/11/20 03:22:39;;;;;;;;;;;33.50;47.50;;;;;;4941357;28;19919;-68
2022/11/20 03:25:06;;;;;;;;;;;34.10;48.80;;;;;;4974626;28;20282;-68
2022/11/20 03:27:34;;;;;;;;;;;35.30;46.90;;;;;;4973554;28;20366;-68
2022/11/20 03:30:01;;;;;;;;;;;34.80;46.80;;;;;;4956353;28;19957;-69
2022/11/20 03:32:27;;;;;;;;;;;34.40;47.30;;;;;;4960672;28;19949;-69
2022/11/20 03:34:54;;;;;;;;;;;34.50;46.80;;;;;;4955632;28;19988;-67
2022/11/20 03:37:21;;;;;;;;;;;33.50;47.20;;;;;;4956826;28;20125;-68
2022/11/20 03:39:48;;;;;;;;;;;32.50;48.60;;;;;;4962162;28;19934;-68
2022/11/20 03:44:59;;;;;;;;;;;30.60;49.40;;;;;;4958854;28;20336;-69
2022/11/20 03:47:25;;;;;;;;;;;29.80;50.10;;;;;;4959284;28;19960;-68
2022/11/20 03:49:52;;;;;;;;;;;29.50;49.70;;;;;;4948868;28;19976;-69
2022/11/20 03:52:18;;;;;;;;;;;29.10;49.40;;;;;;4939896;28;19922;-69
2022/11/20 03:54:45;;;;;;;;;;;29.30;50.20;;;;;;4952293;28;19914;-69
2022/11/20 03:57:12;;;;;;;;;;;30.70;48.30;;;;;;4952856;28;19918;-69
2022/11/20 03:59:39;;;;;;;;;;;32.50;46.90;;;;;;4958716;28;19925;-69
2022/11/20 04:02:05;;;;;;;;;;;33.50;46.80;;;;;;4953678;28;20574;-69
2022/11/20 04:04:32;;;;;;;;;;;34.70;44.30;;;;;;4954046;28;19926;-70
2022/11/20 04:06:59;;;;;;;;;;;35.00;44.90;;;;;;4957088;28;19914;-71
2022/11/20 04:09:25;;;;;;;;;;;34.80;45.60;;;;;;4958622;28;19923;-71
2022/11/20 04:11:52;;;;;;;;;;;34.00;45.90;;;;;;4957750;28;20192;-72
2022/11/20 04:14:18;;;;;;;;;;;33.00;48.10;;;;;;4958450;28;20028;-71
2022/11/20 04:16:45;;;;;;;;;;;32.80;46.90;;;;;;4958894;28;19910;-70
2022/11/20 04:19:13;;;;;;;;;;;33.70;45.20;;;;;;4955558;28;19910;-70
2022/11/20 04:21:40;;;;;;;;;;;33.00;46.50;;;;;;4958385;28;19914;-71
2022/11/20 04:24:07;;;;;;;;;;;32.50;46.50;;;;;;4955212;28;19914;-72
2022/11/20 04:26:34;;;;;;;;;;;32.40;48.30;;;;;;4958163;28;19930;-70
2022/11/20 04:29:03;;;;;;;;;;;32.90;46.60;;;;;;5016266;28;20413;-69
2022/11/20 04:31:31;;;;;;;;;;;32.80;46.20;;;;;;4958312;28;19922;-72
2022/11/20 04:34:02;;;;;;;;;;;32.90;46.20;;;;;;4957468;28;19910;-70
2022/11/20 04:36:29;;;;;;;;;;;32.90;46.60;;;;;;4955656;28;19914;-69
2022/11/20 04:38:57;;;;;;;;;;;33.00;44.60;;;;;;4957537;28;19910;-71
2022/11/20 04:41:25;;;;;;;;;;;33.40;45.00;;;;;;4941523;28;20382;-70
2022/11/20 04:43:59;;;;;;;;;;;33.40;44.70;;;;;;4958572;28;19917;-70
2022/11/20 04:46:33;;;;;;;;;;;33.60;44.70;;;;;;4957842;28;20359;-69
2022/11/20 04:49:00;;;;;;;;;;;34.20;44.40;;;;;;4953359;28;19926;-70
2022/11/20 04:51:27;;;;;;;;;;;34.30;44.60;;;;;;4951910;28;19968;-69
2022/11/20 04:53:55;;;;;;;;;;;34.10;44.10;;;;;;4943376;28;20040;-71
2022/11/20 04:56:22;;;;;;;;;;;34.40;44.10;;;;;;4955816;28;19968;-69
2022/11/20 04:58:49;;;;;;;;;;;35.50;40.30;;;;;;4958176;28;19925;-70
2022/11/20 05:01:17;;;;;;;;;;;35.70;40.20;;;;;;4956728;28;19910;-69
2022/11/20 05:03:44;;;;;;;;;;;36.60;40.30;;;;;;4957906;28;20374;-70
2022/11/20 05:06:12;;;;;;;;;;;36.00;41.10;;;;;;4956278;28;19921;-69
2022/11/20 05:08:39;;;;;;;;;;;35.90;41.70;;;;;;4957591;28;19926;-70
2022/11/20 05:11:07;;;;;;;;;;;35.70;41.20;;;;;;4939345;28;19911;-72
2022/11/20 05:13:34;;;;;;;;;;;35.40;40.10;;;;;;4939445;28;19961;-70
2022/11/20 05:16:08;;;;;;;;;;;34.90;41.20;;;;;;4952106;28;19926;-71
2022/11/20 05:18:35;;;;;;;;;;;34.90;40.70;;;;;;4956953;28;19922;-69
2022/11/20 05:21:02;;;;;;;;;;;34.20;41.00;;;;;;4958285;28;19928;-71
2022/11/20 05:23:30;;;;;;;;;;;34.10;42.00;;;;;;4957676;28;19910;-67
2022/11/20 05:25:57;;;;;;;;;;;34.70;41.50;;;;;;4946660;28;19921;-68
2022/11/20 05:28:24;;;;;;;;;;;35.10;41.10;;;;;;4959386;28;20017;-69
2022/11/20 05:30:50;;;;;;;;;;;34.70;41.10;;;;;;4968355;28;19914;-68
2022/11/20 05:33:18;;;;;;;;;;;34.30;41.00;;;;;;4954376;28;19914;-70
2022/11/20 05:35:44;;;;;;;;;;;34.00;40.30;;;;;;4956892;28;19921;-68
2022/11/20 05:38:11;;;;;;;;;;;34.10;40.50;;;;;;4955697;28;19964;-65
2022/11/20 05:40:38;;;;;;;;;;;34.10;40.40;;;;;;4957128;28;19911;-66
2022/11/20 05:43:04;;;;;;;;;;;34.10;41.10;;;;;;4956527;28;19914;-67
2022/11/20 05:45:31;;;;;;;;;;;33.90;40.80;;;;;;4953023;28;20758;-65
2022/11/20 05:48:01;;;;;;;;;;;33.50;41.60;;;;;;4953460;28;20355;-68
2022/11/20 05:50:28;;;;;;;;;;;33.50;41.90;;;;;;4952734;28;19952;-68
2022/11/20 05:52:54;;;;;;;;;;;33.80;42.10;;;;;;4965325;28;19929;-68
2022/11/20 05:55:21;;;;;;;;;;;33.50;41.40;;;;;;4977729;28;20005;-70
2022/11/20 05:57:48;;;;;;;;;;;32.70;41.70;;;;;;4952982;28;19914;-68
2022/11/20 06:00:15;;;;;;;;;;;32.20;42.60;;;;;;4953686;28;19922;-68
2022/11/20 06:02:41;;;;;;;;;;;31.70;41.90;;;;;;4954459;28;19927;-68
2022/11/20 06:05:08;;;;;;;;;;;31.10;43.10;;;;;;4954688;28;20370;-71
2022/11/20 06:07:35;;;;;;;;;;;30.50;43.30;;;;;;4950743;28;20083;-69
2022/11/20 06:10:01;;;;;;;;;;;29.50;43.50;;;;;;4953150;28;19914;-69
2022/11/20 06:12:28;;;;;;;;;;;28.90;44.10;;;;;;4952627;28;19914;-69
2022/11/20 06:14:54;;;;;;;;;;;28.90;44.50;;;;;;4940343;28;19915;-71
2022/11/20 06:17:21;;;;;;;;;;;28.80;44.40;;;;;;4953168;28;19914;-67
2022/11/20 06:19:48;;;;;;;;;;;28.80;43.40;;;;;;4952489;28;19914;-68
2022/11/20 06:22:14;;;;;;;;;;;28.60;43.50;;;;;;4954990;28;19975;-68
2022/11/20 06:24:41;;;;;;;;;;;28.60;43.70;;;;;;4954841;28;19953;-68
2022/11/20 06:27:08;;;;;;;;;;;28.50;44.50;;;;;;4957378;28;19914;-67
2022/11/20 06:29:34;;;;;;;;;;;28.60;43.80;;;;;;4970768;28;19918;-69
2022/11/20 06:32:01;;;;;;;;;;;28.50;44.30;;;;;;4967614;28;19914;-67
2022/11/20 06:34:28;;;;;;;;;;;28.30;44.10;;;;;;4954803;28;20005;-66
2022/11/20 06:36:55;;;;;;;;;;;28.30;45.20;;;;;;4957782;28;19910;-67
2022/11/20 06:39:21;;;;;;;;;;;28.20;44.60;;;;;;4955443;28;19918;-68
2022/11/20 06:41:48;;;;;;;;;;;27.80;45.40;;;;;;4955758;28;19961;-68
2022/11/20 06:44:14;;;;;;;;;;;28.00;45.30;;;;;;4955686;28;19914;-69
2022/11/20 06:46:41;;;;;;;;;;;28.20;44.70;;;;;;4953185;28;20264;-69
2022/11/20 06:49:08;;;;;;;;;;;28.30;43.90;;;;;;4945170;28;19934;-68
2022/11/20 06:51:34;;;;;;;;;;;28.00;44.50;;;;;;4951626;28;19921;-68
2022/11/20 06:54:01;;;;;;;;;;;27.80;43.80;;;;;;4972246;28;19963;-67
2022/11/20 06:56:28;;;;;;;;;;;27.70;44.10;;;;;;4973871;28;20337;-67
2022/11/20 06:58:54;;;;;;;;;;;27.70;44.50;;;;;;4975983;28;19913;-68
2022/11/20 07:01:21;;;;;;;;;;;27.60;45.10;;;;;;4976035;28;20416;-68
2022/11/20 07:03:50;;;;;;;;;;;27.60;44.90;;;;;;4976806;28;19941;-68
2022/11/20 07:06:17;;;;;;;;;;;27.60;45.50;;;;;;4946788;28;19910;-68
2022/11/20 07:08:44;;;;;;;;;;;27.70;45.70;;;;;;4955420;28;20283;-68
2022/11/20 07:11:13;;;;;;;;;;;27.60;45.00;;;;;;4956788;28;19914;-69
2022/11/20 07:13:40;;;;;;;;;;;27.50;45.30;;;;;;4955059;28;19914;-67
2022/11/20 07:16:07;;;;;;;;;;;27.50;44.00;;;;;;4957193;28;19955;-69
2022/11/20 07:18:34;;;;;;;;;;;27.40;44.00;;;;;;4953563;28;20432;-69
2022/11/20 07:21:01;;;;;;;;;;;27.20;44.30;;;;;;4957426;28;19910;-68
2022/11/20 07:23:28;;;;;;;;;;;27.00;44.20;;;;;;4938246;28;20294;-67
2022/11/20 07:25:55;;;;;;;;;;;26.90;44.60;;;;;;4956485;28;20272;-68
2022/11/20 07:28:21;;;;;;;;;;;26.80;44.70;;;;;;4959133;28;19932;-67
2022/11/20 07:30:51;;;;;;;;;;;26.70;45.00;;;;;;4959507;28;19968;-67
2022/11/20 07:33:18;;;;;;;;;;;26.70;45.10;;;;;;4958679;28;19972;-67
2022/11/20 07:35:45;;;;;;;;;;;26.60;46.00;;;;;;4958752;28;19925;-68
2022/11/20 07:38:12;;;;;;;;;;;26.30;46.40;;;;;;4953487;28;19960;-68
2022/11/20 07:40:38;;;;;;;;;;;26.00;46.90;;;;;;4953453;28;19963;-68
2022/11/20 07:43:05;;;;;;;;;;;26.00;47.90;;;;;;4964275;28;19926;-69
2022/11/20 07:45:32;;;;;;;;;;;26.00;47.50;;;;;;4955151;28;19957;-68
2022/11/20 07:47:58;;;;;;;;;;;25.90;47.70;;;;;;4933147;28;20414;-69
2022/11/20 07:50:25;;;;;;;;;;;25.70;47.10;;;;;;4955562;28;19953;-69
2022/11/20 07:52:52;;;;;;;;;;;25.60;47.10;;;;;;4954413;28;20104;-68
2022/11/20 07:55:19;;;;;;;;;;;25.50;47.60;;;;;;4956164;28;19910;-68
2022/11/20 07:57:45;;;;;;;;;;;25.40;47.80;;;;;;4946917;28;19976;-68
2022/11/20 08:00:12;;;;;;;;;;;25.30;48.50;;;;;;4948679;28;19918;-69
2022/11/20 08:02:40;;;;;;;;;;;25.10;48.80;;;;;;4954110;28;20397;-68
2022/11/20 08:05:07;;;;;;;;;;;25.00;48.80;;;;;;4959447;28;19924;-69
2022/11/20 08:07:38;;;;;;;;;;;24.90;49.20;;;;;;4945064;28;19922;-68
2022/11/20 08:10:05;;;;;;;;;;;24.80;49.80;;;;;;4939729;28;19914;-68
2022/11/20 08:15:16;;;;;;;;;;;24.60;50.50;;;;;;4941019;28;20662;-67
2022/11/20 08:17:43;;;;;;;;;;;24.50;50.50;;;;;;4939408;28;19911;-68
2022/11/20 08:20:10;;;;;;;;;;;24.50;50.90;;;;;;4958599;28;19907;-68
2022/11/20 08:22:37;;;;;;;;;;;24.40;50.60;;;;;;4955799;28;20013;-68
2022/11/20 08:25:04;;;;;;;;;;;24.40;51.10;;;;;;4958165;28;19914;-68
2022/11/20 08:27:31;;;;;;;;;;;24.30;50.90;;;;;;4958695;28;20016;-68
2022/11/20 08:29:58;;;;;;;;;;;24.20;51.00;;;;;;4958049;28;19914;-67
2022/11/20 08:32:25;;;;;;;;;;;24.10;51.50;;;;;;4957117;28;20005;-67
2022/11/20 08:34:52;;;;;;;;;;;24.00;51.60;;;;;;4949587;28;19923;-67
2022/11/20 08:37:18;;;;;;;;;;;23.90;52.40;;;;;;4952826;28;19914;-67
2022/11/20 08:39:46;;;;;;;;;;;23.80;52.50;;;;;;4956209;28;19917;-67
2022/11/20 08:42:13;;;;;;;;;;;23.70;52.40;;;;;;4952026;28;19960;-67
2022/11/20 08:44:39;;;;;;;;;;;23.70;52.50;;;;;;4950221;28;19921;-67
2022/11/20 08:47:06;;;;;;;;;;;23.60;52.00;;;;;;4952099;28;20391;-67
2022/11/20 08:49:33;;;;;;;;;;;23.60;52.20;;;;;;4959034;28;19963;-67
2022/11/20 08:52:00;;;;;;;;;;;23.50;52.40;;;;;;4956166;28;19952;-67
2022/11/20 08:54:27;;;;;;;;;;;23.40;53.40;;;;;;4957635;28;19910;-67
2022/11/20 08:56:54;;;;;;;;;;;23.40;52.20;;;;;;4956850;28;19917;-67
2022/11/20 08:59:20;;;;;;;;;;;23.30;52.30;;;;;;4958726;28;19914;-69
2022/11/20 09:01:47;;;;;;;;;;;23.30;52.30;;;;;;4954650;28;20363;-66
2022/11/20 09:04:14;;;;;;;;;;;23.20;52.20;;;;;;4947550;28;19914;-69
2022/11/20 09:06:40;;;;;;;;;;;23.20;52.20;;;;;;4938673;28;19911;-70
2022/11/20 09:09:07;;;;;;;;;;;23.10;52.20;;;;;;4953143;28;19922;-67
2022/11/20 09:11:35;;;;;;;;;;;23.10;51.90;;;;;;4941672;28;19974;-68
2022/11/20 09:14:02;;;;;;;;;;;23.00;51.90;;;;;;4937367;28;20355;-69
2022/11/20 09:16:29;;;;;;;;;;;22.90;51.80;;;;;;4938711;28;19983;-67
2022/11/20 09:18:55;;;;;;;;;;;22.90;52.00;;;;;;4947412;28;19910;-69
2022/11/20 09:21:23;;;;;;;;;;;22.90;52.10;;;;;;4952399;28;19915;-67
2022/11/20 09:23:50;;;;;;;;;;;22.90;51.70;;;;;;4937371;28;19940;-68
2022/11/20 09:26:16;;;;;;;;;;;22.80;51.70;;;;;;4938794;28;19910;-68
2022/11/20 09:28:43;;;;;;;;;;;22.80;51.60;;;;;;4946712;28;19925;-67
2022/11/20 09:31:18;;;;;;;;;;;22.70;52.20;;;;;;4958354;28;19911;-68
2022/11/20 09:33:44;;;;;;;;;;;22.60;51.90;;;;;;4957698;28;19914;-67
2022/11/20 09:36:11;;;;;;;;;;;22.60;51.90;;;;;;4954980;28;19968;-67
2022/11/20 09:38:37;;;;;;;;;;;22.50;51.90;;;;;;4946815;28;19922;-66
2022/11/20 09:41:06;;;;;;;;;;;22.50;52.50;;;;;;4954937;28;19953;-67
2022/11/20 09:43:35;;;;;;;;;;;22.50;52.10;;;;;;4953760;28;19944;-67
2022/11/20 09:46:12;;;;;;;;;;;22.40;52.60;;;;;;4956058;28;19914;-66
2022/11/20 09:48:51;;;;;;;;;;;22.30;52.50;;;;;;4957571;28;20001;-67
2022/11/20 09:51:17;;;;;;;;;;;22.30;52.70;;;;;;4954897;28;20004;-68
2022/11/20 09:53:50;;;;;;;;;;;22.20;53.00;;;;;;4939280;28;19980;-66
2022/11/20 09:56:17;;;;;;;;;;;22.20;52.80;;;;;;4955612;28;19917;-67
2022/11/20 09:58:49;;;;;;;;;;;22.20;52.50;;;;;;4956940;28;19929;-68
2022/11/20 10:01:17;;;;;;;;;;;22.20;53.00;;;;;;4956739;28;19914;-67
2022/11/20 10:03:50;;;;;;;;;;;22.10;52.90;;;;;;4957786;28;19911;-67
2022/11/20 10:06:18;;;;;;;;;;;22.10;52.90;;;;;;4952489;28;19922;-66
2022/11/20 10:08:57;;;;;;;;;;;22.00;52.60;;;;;;4927225;28;19926;-67
2022/11/20 10:11:41;;;;;;;;;;;22.00;52.60;;;;;;4956316;28;20004;-67
2022/11/20 10:14:14;;;;;;;;;;;22.00;53.00;;;;;;4956200;28;20446;-69
2022/11/20 10:16:43;;;;;;;;;;;21.90;53.00;;;;;;4956276;28;20830;-66
2022/11/20 10:19:27;;;;;;;;;;;21.90;52.50;;;;;;4954123;28;19918;-67
2022/11/20 10:22:03;;;;;;;;;;;21.80;52.80;;;;;;4955102;28;19922;-67
2022/11/20 10:24:48;;;;;;;;;;;21.80;52.50;;;;;;4955844;28;19955;-67
2022/11/20 10:27:32;;;;;;;;;;;21.80;52.60;;;;;;4955532;28;19924;-68
2022/11/20 10:30:08;;;;;;;;;;;21.90;53.10;;;;;;4966428;28;19992;-67
2022/11/20 10:32:47;;;;;;;;;;;21.80;52.60;;;;;;4977308;28;20161;-66
2022/11/20 10:35:21;;;;;;;;;;;21.80;52.90;;;;;;4953652;28;19960;-68
2022/11/20 10:37:53;;;;;;;;;;;21.80;53.20;;;;;;4958073;28;19910;-66
2022/11/20 10:40:23;;;;;;;;;;;21.70;53.10;;;;;;4957181;28;19917;-67
2022/11/20 10:42:56;;;;;;;;;;;21.70;53.40;;;;;;4958267;28;20005;-67
2022/11/20 10:45:32;;;;;;;;;;;21.60;53.30;;;;;;4955348;28;20397;-67
2022/11/20 10:48:08;;;;;;;;;;;21.60;53.50;;;;;;4938808;28;19918;-67
2022/11/20 10:50:36;;;;;;;;;;;21.60;54.00;;;;;;4937317;28;19910;-66
2022/11/20 10:53:08;;;;;;;;;;;21.50;54.40;;;;;;4938904;29;19934;-66
2022/11/20 10:55:49;;;;;;;;;;;21.50;54.50;;;;;;4936630;29;19914;-67
2022/11/20 10:58:32;;;;;;;;;;;21.40;54.60;;;;;;4936620;28;19918;-68
2022/11/20 11:01:05;;;;;;;;;;;21.40;55.00;;;;;;4937591;28;20298;-67
2022/11/20 11:03:33;;;;;;;;;;;21.40;55.50;;;;;;4954891;28;19937;-67
2022/11/20 11:06:02;;;;;;;;;;;21.30;55.70;;;;;;4957372;28;19961;-68
2022/11/20 11:08:33;;;;;;;;;;;21.30;56.20;;;;;;4954931;28;19976;-68
2022/11/20 11:11:01;;;;;;;;;;;21.20;57.40;;;;;;4958212;28;20022;-67
2022/11/20 11:13:29;;;;;;;;;;;21.10;56.00;;;;;;4956202;28;20319;-68
2022/11/20 11:15:56;;;;;;;;;;;21.00;55.90;;;;;;4957889;28;20047;-68
2022/11/20 11:18:25;;;;;;;;;;;21.10;56.40;;;;;;4952394;28;19914;-67
2022/11/20 11:20:52;;;;;;;;;;;21.00;56.40;;;;;;4940970;28;19918;-66
2022/11/20 11:23:32;;;;;;;;;;;21.00;56.60;;;;;;4956124;28;19914;-67
2022/11/20 11:25:59;;;;;;;;;;;20.90;56.60;;;;;;4958355;28;20427;-68
2022/11/20 11:28:27;;;;;;;;;;;20.90;56.80;;;;;;4956129;28;19925;-66
2022/11/20 11:30:54;;;;;;;;;;;21.00;57.00;;;;;;4939390;28;20386;-66
2022/11/20 11:33:25;;;;;;;;;;;20.90;57.30;;;;;;4938540;28;19911;-67
2022/11/20 11:36:03;;;;;;;;;;;20.90;57.20;;;;;;4940950;28;20048;-66
2022/11/20 11:38:34;;;;;;;;;;;20.80;57.30;;;;;;4941281;28;20401;-67
2022/11/20 11:41:01;;;;;;;;;;;20.90;57.80;;;;;;4941274;28;20056;-66
2022/11/20 11:46:20;;;;;;;;;;;20.80;57.80;;;;;;4942205;28;19975;-67
2022/11/20 11:49:05;;;;;;;;;;;20.80;58.30;;;;;;4939729;28;19926;-67
2022/11/20 11:51:41;;;;;;;;;;;20.70;58.20;;;;;;4941454;28;19925;-67
2022/11/20 11:54:18;;;;;;;;;;;20.80;58.30;;;;;;4941700;28;20322;-66
2022/11/20 11:56:45;;;;;;;;;;;20.70;58.50;;;;;;4941271;28;20017;-66
2022/11/20 11:59:15;;;;;;;;;;;20.60;58.50;;;;;;4960818;28;19910;-67
2022/11/20 12:01:51;;;;;;;;;;;20.60;58.70;;;;;;4958314;28;19972;-67
2022/11/20 12:04:35;;;;;;;;;;;20.50;58.60;;;;;;4960966;28;19918;-67
2022/11/20 12:07:07;;;;;;;;;;;20.50;59.60;;;;;;4959461;28;19915;-68
2022/11/20 12:09:40;;;;;;;;;;;20.50;60.00;;;;;;4960834;28;19929;-67
2022/11/20 12:12:10;;;;;;;;;;;20.40;59.70;;;;;;4960077;28;19956;-68
2022/11/20 12:14:46;;;;;;;;;;;20.40;59.40;;;;;;4959970;28;19917;-68
2022/11/20 12:17:13;;;;;;;;;;;20.30;59.20;;;;;;4959001;28;20282;-68
2022/11/20 12:19:41;;;;;;;;;;;20.30;59.20;;;;;;4959133;28;19952;-68
2022/11/20 12:22:17;;;;;;;;;;;20.30;59.80;;;;;;4960849;28;19999;-68
2022/11/20 12:24:50;;;;;;;;;;;20.30;59.60;;;;;;4947109;28;19968;-67
2022/11/20 12:27:34;;;;;;;;;;;20.20;59.80;;;;;;4940970;28;19961;-66
2022/11/20 12:30:03;;;;;;;;;;;20.20;60.10;;;;;;4937454;28;20117;-69
2022/11/20 12:32:35;;;;;;;;;;;20.10;60.50;;;;;;4949265;28;19910;-67
2022/11/20 12:35:17;;;;;;;;;;;20.10;60.60;;;;;;4956922;28;19922;-69
2022/11/20 12:38:02;;;;;;;;;;;20.10;60.30;;;;;;4943999;28;20256;-68
2022/11/20 12:40:28;;;;;;;;;;;20.00;60.90;;;;;;4941673;29;19914;-70
2022/11/20 12:46:18;;;;;;;;;;;20.10;61.10;;;;;;4933726;28;19918;-67
2022/11/20 12:49:02;;;;;;;;;;;20.00;61.90;;;;;;4958580;28;19919;-66
2022/11/20 12:51:43;;;;;;;;;;;19.90;61.80;;;;;;4971425;23;19914;-71
2022/11/20 12:54:28;;;;;;;;;;;19.90;61.80;;;;;;4934515;28;19984;-70
2022/11/20 12:57:02;;;;;;;;;;;19.90;62.70;;;;;;4940477;28;20395;-69
2022/11/20 12:59:31;;;;;;;;;;;19.80;61.70;;;;;;4940885;28;19911;-69
2022/11/20 13:02:21;;;;;;;;;;;19.80;62.40;;;;;;4940068;28;19910;-72
2022/11/20 13:04:59;;;;;;;;;;;19.70;63.50;;;;;;4945612;28;20230;-69
2022/11/20 13:07:27;;;;;;;;;;;19.70;62.50;;;;;;4938266;28;20108;-69
2022/11/20 13:09:54;;;;;;;;;;;19.70;62.90;;;;;;4940307;28;19922;-70
2022/11/20 13:12:28;;;;;;;;;;;19.70;63.30;;;;;;4946647;28;19916;-69
2022/11/20 13:24:52;;;;;;;;;;;19.40;64.80;;;;;;4941435;28;19956;-68
2022/11/20 13:30:22;;;;;;;;;;;19.40;65.90;;;;;;4949612;28;19926;-68
2022/11/20 13:33:09;;;;;;;;;;;19.30;66.20;;;;;;4940605;29;20005;-69
2022/11/20 13:35:37;;;;;;;;;;;19.30;65.80;;;;;;4938164;29;20391;-69
2022/11/20 13:38:11;;;;;;;;;;;19.20;66.10;;;;;;4942092;28;19922;-72
2022/11/20 13:40:39;;;;;;;;;;;19.20;66.90;;;;;;4938782;28;20001;-69
2022/11/20 13:43:16;;;;;;;;;;;19.20;66.50;;;;;;4939902;28;19914;-68
2022/11/20 13:45:54;;;;;;;;;;;19.20;66.00;;;;;;4937951;28;20022;-70
2022/11/20 13:48:22;;;;;;;;;;;19.10;66.00;;;;;;4918237;28;19929;-72
2022/11/20 13:51:09;;;;;;;;;;;19.10;65.70;;;;;;4920171;29;19911;-70
2022/11/20 13:53:54;;;;;;;;;;;19.10;65.70;;;;;;4918601;29;19922;-71
2022/11/20 13:56:26;;;;;;;;;;;19.10;65.70;;;;;;4929400;28;19921;-68
2022/11/20 13:58:56;;;;;;;;;;;19.00;65.50;;;;;;4939490;28;19916;-68
2022/11/20 14:01:27;;;;;;;;;;;19.00;65.90;;;;;;4937754;28;19914;-71
2022/11/20 14:03:54;;;;;;;;;;;19.00;64.90;;;;;;4939190;28;19946;-69
2022/11/20 14:06:27;;;;;;;;;;;19.00;65.20;;;;;;4937117;28;19921;-70
2022/11/20 14:08:53;;;;;;;;;;;19.00;64.40;;;;;;4939273;28;20290;-71
2022/11/20 14:11:22;;;;;;;;;;;18.90;64.10;;;;;;4937198;28;19914;-68
2022/11/20 14:14:05;;;;;;;;;;;19.00;63.80;;;;;;4937920;28;19969;-69
2022/11/20 14:16:36;;;;;;;;;;;19.00;63.60;;;;;;4940388;28;19918;-69
2022/11/20 14:19:21;;;;;;;;;;;19.00;63.70;;;;;;4958211;28;19910;-71
2022/11/20 14:21:50;;;;;;;;;;;19.00;63.20;;;;;;4956760;28;20428;-68
2022/11/20 14:24:21;;;;;;;;;;;19.10;63.30;;;;;;4921630;28;19918;-71
2022/11/20 14:26:47;;;;;;;;;;;19.10;63.40;;;;;;4937016;28;20385;-71
2022/11/20 14:29:22;;;;;;;;;;;19.10;63.20;;;;;;4938682;28;19919;-69
2022/11/20 14:31:50;;;;;;;;;;;19.00;63.20;;;;;;4937206;28;19917;-70
2022/11/20 14:34:22;;;;;;;;;;;19.00;63.20;;;;;;4937990;28;19949;-72
2022/11/20 14:36:52;;;;;;;;;;;19.00;63.40;;;;;;4937425;28;19921;-71
2022/11/20 14:39:22;;;;;;;;;;;19.10;64.00;;;;;;4938758;28;19914;-71
2022/11/20 14:41:52;;;;;;;;;;;19.10;63.30;;;;;;4935940;28;19918;-72
2022/11/20 14:44:21;;;;;;;;;;;19.10;62.90;;;;;;4939016;28;19911;-69
2022/11/20 14:46:48;;;;;;;;;;;19.00;63.20;;;;;;4943545;28;19960;-71
2022/11/20 14:49:15;;;;;;;;;;;19.00;63.40;;;;;;4943538;28;19923;-69
2022/11/20 14:51:41;;;;;;;;;;;19.00;62.60;;;;;;4936979;28;19922;-71
2022/11/20 14:54:09;;;;;;;;;;;19.00;62.30;;;;;;4937818;28;19915;-71